<?xml version="1.0" encoding="UTF-8" standalone="no" ?>
<gpx xmlns="http://www.topografix.com/GPX/1/1" xmlns:xsi="http://www.w3.org/2001/XMLSchema-instance" xsi:schemaLocation="http://www.topografix.com/GPX/1/1 http://www.topografix.com/GPX/1/1/gpx.xsd" version="1.1" creator="VisuGPX - https://www.visugpx.com">
  <metadata>
    <name>Aqueduc du Gier au Plat de l\'Air</name>
    <desc><![CDATA[Boucle pedestre au départ des aqueducs romains à Chaponost]]></desc>
  </metadata>
  <trk>
    <name><![CDATA[ACTIVE LOG131104]]></name>
    <trkseg>
      <trkpt lat="45.72033" lon="4.75982">
        <ele>286.476</ele>
        <time>2013-06-16T13:16:50Z</time>
      </trkpt>
      <trkpt lat="45.72031" lon="4.75988">
        <ele>286.35</ele>
        <time>2013-06-16T13:16:54Z</time>
      </trkpt>
      <trkpt lat="45.72027" lon="4.75993">
        <ele>286.108</ele>
        <time>2013-06-16T13:17:01Z</time>
      </trkpt>
      <trkpt lat="45.72025" lon="4.75996">
        <ele>286.194</ele>
        <time>2013-06-16T13:17:04Z</time>
      </trkpt>
      <trkpt lat="45.72024" lon="4.76003">
        <ele>286.229</ele>
        <time>2013-06-16T13:17:08Z</time>
      </trkpt>
      <trkpt lat="45.72025" lon="4.76012">
        <ele>285.963</ele>
        <time>2013-06-16T13:17:12Z</time>
      </trkpt>
      <trkpt lat="45.72027" lon="4.76019">
        <ele>286.014</ele>
        <time>2013-06-16T13:17:15Z</time>
      </trkpt>
      <trkpt lat="45.72014" lon="4.76047">
        <ele>285.543</ele>
        <time>2013-06-16T13:17:33Z</time>
      </trkpt>
      <trkpt lat="45.7201" lon="4.76072">
        <ele>285.842</ele>
        <time>2013-06-16T13:17:47Z</time>
      </trkpt>
      <trkpt lat="45.72006" lon="4.76101">
        <ele>286.179</ele>
        <time>2013-06-16T13:18:04Z</time>
      </trkpt>
      <trkpt lat="45.72003" lon="4.76106">
        <ele>286.025</ele>
        <time>2013-06-16T13:18:07Z</time>
      </trkpt>
      <trkpt lat="45.71997" lon="4.76134">
        <ele>284.91</ele>
        <time>2013-06-16T13:18:27Z</time>
      </trkpt>
      <trkpt lat="45.71996" lon="4.76141">
        <ele>284.795</ele>
        <time>2013-06-16T13:18:32Z</time>
      </trkpt>
      <trkpt lat="45.71991" lon="4.76147">
        <ele>284.676</ele>
        <time>2013-06-16T13:18:36Z</time>
      </trkpt>
      <trkpt lat="45.71991" lon="4.76164">
        <ele>283.62</ele>
        <time>2013-06-16T13:18:47Z</time>
      </trkpt>
      <trkpt lat="45.7199" lon="4.76184">
        <ele>282.689</ele>
        <time>2013-06-16T13:19:02Z</time>
      </trkpt>
      <trkpt lat="45.71989" lon="4.76189">
        <ele>281.906</ele>
        <time>2013-06-16T13:19:05Z</time>
      </trkpt>
      <trkpt lat="45.71988" lon="4.76208">
        <ele>281.447</ele>
        <time>2013-06-16T13:19:13Z</time>
      </trkpt>
      <trkpt lat="45.71989" lon="4.76216">
        <ele>281.109</ele>
        <time>2013-06-16T13:19:17Z</time>
      </trkpt>
      <trkpt lat="45.71986" lon="4.76233">
        <ele>280.683</ele>
        <time>2013-06-16T13:19:29Z</time>
      </trkpt>
      <trkpt lat="45.71983" lon="4.76244">
        <ele>280.105</ele>
        <time>2013-06-16T13:19:37Z</time>
      </trkpt>
      <trkpt lat="45.71983" lon="4.76249">
        <ele>279.948</ele>
        <time>2013-06-16T13:19:40Z</time>
      </trkpt>
      <trkpt lat="45.71983" lon="4.76253">
        <ele>279.559</ele>
        <time>2013-06-16T13:19:43Z</time>
      </trkpt>
      <trkpt lat="45.71985" lon="4.76264">
        <ele>279.289</ele>
        <time>2013-06-16T13:19:48Z</time>
      </trkpt>
      <trkpt lat="45.71984" lon="4.7627">
        <ele>279.047</ele>
        <time>2013-06-16T13:19:51Z</time>
      </trkpt>
      <trkpt lat="45.71964" lon="4.76296">
        <ele>276.972</ele>
        <time>2013-06-16T13:20:07Z</time>
      </trkpt>
      <trkpt lat="45.71965" lon="4.76304">
        <ele>276.583</ele>
        <time>2013-06-16T13:20:13Z</time>
      </trkpt>
      <trkpt lat="45.7197" lon="4.76329">
        <ele>274.823</ele>
        <time>2013-06-16T13:20:28Z</time>
      </trkpt>
      <trkpt lat="45.71975" lon="4.76339">
        <ele>274.493</ele>
        <time>2013-06-16T13:20:33Z</time>
      </trkpt>
      <trkpt lat="45.71977" lon="4.76362">
        <ele>272.594</ele>
        <time>2013-06-16T13:20:49Z</time>
      </trkpt>
      <trkpt lat="45.71977" lon="4.76367">
        <ele>272.915</ele>
        <time>2013-06-16T13:20:52Z</time>
      </trkpt>
      <trkpt lat="45.71979" lon="4.76373">
        <ele>272.661</ele>
        <time>2013-06-16T13:20:56Z</time>
      </trkpt>
      <trkpt lat="45.71975" lon="4.76397">
        <ele>270.341</ele>
        <time>2013-06-16T13:21:14Z</time>
      </trkpt>
      <trkpt lat="45.71978" lon="4.76404">
        <ele>270.635</ele>
        <time>2013-06-16T13:21:28Z</time>
      </trkpt>
      <trkpt lat="45.71972" lon="4.76421">
        <ele>269.764</ele>
        <time>2013-06-16T13:21:41Z</time>
      </trkpt>
      <trkpt lat="45.71968" lon="4.7643">
        <ele>269.765</ele>
        <time>2013-06-16T13:21:48Z</time>
      </trkpt>
      <trkpt lat="45.71964" lon="4.76435">
        <ele>268.975</ele>
        <time>2013-06-16T13:21:54Z</time>
      </trkpt>
      <trkpt lat="45.71961" lon="4.76437">
        <ele>269.029</ele>
        <time>2013-06-16T13:21:56Z</time>
      </trkpt>
      <trkpt lat="45.71959" lon="4.7644">
        <ele>268.739</ele>
        <time>2013-06-16T13:21:58Z</time>
      </trkpt>
      <trkpt lat="45.71956" lon="4.76448">
        <ele>268.703</ele>
        <time>2013-06-16T13:22:03Z</time>
      </trkpt>
      <trkpt lat="45.71954" lon="4.76454">
        <ele>268.104</ele>
        <time>2013-06-16T13:22:06Z</time>
      </trkpt>
      <trkpt lat="45.71944" lon="4.76479">
        <ele>267.142</ele>
        <time>2013-06-16T13:22:22Z</time>
      </trkpt>
      <trkpt lat="45.71939" lon="4.76506">
        <ele>265.988</ele>
        <time>2013-06-16T13:22:38Z</time>
      </trkpt>
      <trkpt lat="45.71937" lon="4.76529">
        <ele>265.533</ele>
        <time>2013-06-16T13:22:55Z</time>
      </trkpt>
      <trkpt lat="45.71937" lon="4.7654">
        <ele>264.948</ele>
        <time>2013-06-16T13:23:02Z</time>
      </trkpt>
      <trkpt lat="45.71934" lon="4.76546">
        <ele>264.19</ele>
        <time>2013-06-16T13:23:06Z</time>
      </trkpt>
      <trkpt lat="45.71931" lon="4.76558">
        <ele>263.849</ele>
        <time>2013-06-16T13:23:22Z</time>
      </trkpt>
      <trkpt lat="45.71929" lon="4.76584">
        <ele>262.363</ele>
        <time>2013-06-16T13:23:42Z</time>
      </trkpt>
      <trkpt lat="45.71931" lon="4.76592">
        <ele>262.499</ele>
        <time>2013-06-16T13:24:01Z</time>
      </trkpt>
      <trkpt lat="45.7193" lon="4.76609">
        <ele>262.15</ele>
        <time>2013-06-16T13:24:21Z</time>
      </trkpt>
      <trkpt lat="45.7193" lon="4.76615">
        <ele>262.023</ele>
        <time>2013-06-16T13:24:26Z</time>
      </trkpt>
      <trkpt lat="45.7193" lon="4.76622">
        <ele>261.787</ele>
        <time>2013-06-16T13:24:31Z</time>
      </trkpt>
      <trkpt lat="45.71938" lon="4.76649">
        <ele>260.579</ele>
        <time>2013-06-16T13:24:51Z</time>
      </trkpt>
      <trkpt lat="45.71941" lon="4.76652">
        <ele>260.29</ele>
        <time>2013-06-16T13:24:54Z</time>
      </trkpt>
      <trkpt lat="45.71948" lon="4.76666">
        <ele>259.067</ele>
        <time>2013-06-16T13:25:08Z</time>
      </trkpt>
      <trkpt lat="45.71952" lon="4.76676">
        <ele>258.58</ele>
        <time>2013-06-16T13:25:15Z</time>
      </trkpt>
      <trkpt lat="45.71954" lon="4.76682">
        <ele>257.666</ele>
        <time>2013-06-16T13:25:21Z</time>
      </trkpt>
      <trkpt lat="45.71971" lon="4.76703">
        <ele>255.99</ele>
        <time>2013-06-16T13:25:39Z</time>
      </trkpt>
      <trkpt lat="45.7197" lon="4.76706">
        <ele>255.867</ele>
        <time>2013-06-16T13:25:42Z</time>
      </trkpt>
      <trkpt lat="45.71967" lon="4.76704">
        <ele>253.66</ele>
        <time>2013-06-16T13:25:53Z</time>
      </trkpt>
      <trkpt lat="45.71958" lon="4.76704">
        <ele>252.73</ele>
        <time>2013-06-16T13:26:06Z</time>
      </trkpt>
      <trkpt lat="45.71954" lon="4.76704">
        <ele>254.232</ele>
        <time>2013-06-16T13:26:14Z</time>
      </trkpt>
      <trkpt lat="45.71941" lon="4.767">
        <ele>270.862</ele>
        <time>2013-06-16T13:27:12Z</time>
      </trkpt>
      <trkpt lat="45.71931" lon="4.76697">
        <ele>271.006</ele>
        <time>2013-06-16T13:27:22Z</time>
      </trkpt>
      <trkpt lat="45.71917" lon="4.76699">
        <ele>270.085</ele>
        <time>2013-06-16T13:27:35Z</time>
      </trkpt>
      <trkpt lat="45.71915" lon="4.76701">
        <ele>270.765</ele>
        <time>2013-06-16T13:27:37Z</time>
      </trkpt>
      <trkpt lat="45.71909" lon="4.76705">
        <ele>270.84</ele>
        <time>2013-06-16T13:27:42Z</time>
      </trkpt>
      <trkpt lat="45.71882" lon="4.76732">
        <ele>269.249</ele>
        <time>2013-06-16T13:28:08Z</time>
      </trkpt>
      <trkpt lat="45.71865" lon="4.76744">
        <ele>269.751</ele>
        <time>2013-06-16T13:28:24Z</time>
      </trkpt>
      <trkpt lat="45.71858" lon="4.76742">
        <ele>269.253</ele>
        <time>2013-06-16T13:28:36Z</time>
      </trkpt>
      <trkpt lat="45.71855" lon="4.76742">
        <ele>269.494</ele>
        <time>2013-06-16T13:29:07Z</time>
      </trkpt>
      <trkpt lat="45.71836" lon="4.76751">
        <ele>269.035</ele>
        <time>2013-06-16T13:29:23Z</time>
      </trkpt>
      <trkpt lat="45.71828" lon="4.76756">
        <ele>268.775</ele>
        <time>2013-06-16T13:29:31Z</time>
      </trkpt>
      <trkpt lat="45.71813" lon="4.7676">
        <ele>269.277</ele>
        <time>2013-06-16T13:29:47Z</time>
      </trkpt>
      <trkpt lat="45.71804" lon="4.76764">
        <ele>269.217</ele>
        <time>2013-06-16T13:29:55Z</time>
      </trkpt>
      <trkpt lat="45.71795" lon="4.7677">
        <ele>268.683</ele>
        <time>2013-06-16T13:30:03Z</time>
      </trkpt>
      <trkpt lat="45.71771" lon="4.7677">
        <ele>268.232</ele>
        <time>2013-06-16T13:30:20Z</time>
      </trkpt>
      <trkpt lat="45.71752" lon="4.76785">
        <ele>267.862</ele>
        <time>2013-06-16T13:30:42Z</time>
      </trkpt>
      <trkpt lat="45.71738" lon="4.76802">
        <ele>266.765</ele>
        <time>2013-06-16T13:31:05Z</time>
      </trkpt>
      <trkpt lat="45.71731" lon="4.7681">
        <ele>267.166</ele>
        <time>2013-06-16T13:31:32Z</time>
      </trkpt>
      <trkpt lat="45.71728" lon="4.76814">
        <ele>266.572</ele>
        <time>2013-06-16T13:31:50Z</time>
      </trkpt>
      <trkpt lat="45.71724" lon="4.7682">
        <ele>265.858</ele>
        <time>2013-06-16T13:31:58Z</time>
      </trkpt>
      <trkpt lat="45.71711" lon="4.76835">
        <ele>265.037</ele>
        <time>2013-06-16T13:32:12Z</time>
      </trkpt>
      <trkpt lat="45.71709" lon="4.76837">
        <ele>264.811</ele>
        <time>2013-06-16T13:32:14Z</time>
      </trkpt>
      <trkpt lat="45.71707" lon="4.76841">
        <ele>264.693</ele>
        <time>2013-06-16T13:32:17Z</time>
      </trkpt>
      <trkpt lat="45.71689" lon="4.7686">
        <ele>263.182</ele>
        <time>2013-06-16T13:32:37Z</time>
      </trkpt>
      <trkpt lat="45.71678" lon="4.76874">
        <ele>262.465</ele>
        <time>2013-06-16T13:32:52Z</time>
      </trkpt>
      <trkpt lat="45.71663" lon="4.76889">
        <ele>261.443</ele>
        <time>2013-06-16T13:33:07Z</time>
      </trkpt>
      <trkpt lat="45.71651" lon="4.769">
        <ele>260.955</ele>
        <time>2013-06-16T13:33:19Z</time>
      </trkpt>
      <trkpt lat="45.71638" lon="4.76915">
        <ele>260.217</ele>
        <time>2013-06-16T13:33:34Z</time>
      </trkpt>
      <trkpt lat="45.71634" lon="4.76921">
        <ele>260.644</ele>
        <time>2013-06-16T13:33:39Z</time>
      </trkpt>
      <trkpt lat="45.7161" lon="4.76936">
        <ele>259.833</ele>
        <time>2013-06-16T13:34:01Z</time>
      </trkpt>
      <trkpt lat="45.71607" lon="4.76937">
        <ele>259.934</ele>
        <time>2013-06-16T13:34:03Z</time>
      </trkpt>
      <trkpt lat="45.71583" lon="4.7694">
        <ele>257.766</ele>
        <time>2013-06-16T13:34:23Z</time>
      </trkpt>
      <trkpt lat="45.71562" lon="4.76946">
        <ele>257.822</ele>
        <time>2013-06-16T13:34:43Z</time>
      </trkpt>
      <trkpt lat="45.71543" lon="4.76952">
        <ele>257.108</ele>
        <time>2013-06-16T13:35:00Z</time>
      </trkpt>
      <trkpt lat="45.71537" lon="4.76953">
        <ele>257.274</ele>
        <time>2013-06-16T13:35:05Z</time>
      </trkpt>
      <trkpt lat="45.71532" lon="4.76955">
        <ele>257.144</ele>
        <time>2013-06-16T13:35:10Z</time>
      </trkpt>
      <trkpt lat="45.71507" lon="4.76967">
        <ele>255.867</ele>
        <time>2013-06-16T13:35:32Z</time>
      </trkpt>
      <trkpt lat="45.71496" lon="4.76972">
        <ele>256.236</ele>
        <time>2013-06-16T13:35:43Z</time>
      </trkpt>
      <trkpt lat="45.71495" lon="4.76976">
        <ele>256.288</ele>
        <time>2013-06-16T13:35:46Z</time>
      </trkpt>
      <trkpt lat="45.71478" lon="4.76982">
        <ele>255.66</ele>
        <time>2013-06-16T13:36:01Z</time>
      </trkpt>
      <trkpt lat="45.71455" lon="4.76973">
        <ele>255.1</ele>
        <time>2013-06-16T13:36:21Z</time>
      </trkpt>
      <trkpt lat="45.71436" lon="4.76978">
        <ele>253.379</ele>
        <time>2013-06-16T13:36:42Z</time>
      </trkpt>
      <trkpt lat="45.71419" lon="4.76986">
        <ele>251.926</ele>
        <time>2013-06-16T13:36:57Z</time>
      </trkpt>
      <trkpt lat="45.71403" lon="4.7699">
        <ele>250.599</ele>
        <time>2013-06-16T13:37:13Z</time>
      </trkpt>
      <trkpt lat="45.71386" lon="4.76992">
        <ele>249.843</ele>
        <time>2013-06-16T13:37:29Z</time>
      </trkpt>
      <trkpt lat="45.71384" lon="4.76992">
        <ele>250.387</ele>
        <time>2013-06-16T13:37:31Z</time>
      </trkpt>
      <trkpt lat="45.71374" lon="4.76999">
        <ele>249.759</ele>
        <time>2013-06-16T13:37:44Z</time>
      </trkpt>
      <trkpt lat="45.71359" lon="4.76999">
        <ele>249.988</ele>
        <time>2013-06-16T13:37:58Z</time>
      </trkpt>
      <trkpt lat="45.71341" lon="4.77003">
        <ele>250.06</ele>
        <time>2013-06-16T13:38:14Z</time>
      </trkpt>
      <trkpt lat="45.71324" lon="4.77006">
        <ele>250.23</ele>
        <time>2013-06-16T13:38:32Z</time>
      </trkpt>
      <trkpt lat="45.71317" lon="4.77004">
        <ele>250.012</ele>
        <time>2013-06-16T13:39:00Z</time>
      </trkpt>
      <trkpt lat="45.71304" lon="4.77003">
        <ele>250.366</ele>
        <time>2013-06-16T13:39:13Z</time>
      </trkpt>
      <trkpt lat="45.713" lon="4.77006">
        <ele>250.495</ele>
        <time>2013-06-16T13:39:38Z</time>
      </trkpt>
      <trkpt lat="45.71303" lon="4.77006">
        <ele>250.4</ele>
        <time>2013-06-16T13:40:23Z</time>
      </trkpt>
      <trkpt lat="45.71296" lon="4.77006">
        <ele>250.595</ele>
        <time>2013-06-16T13:41:24Z</time>
      </trkpt>
      <trkpt lat="45.71286" lon="4.77006">
        <ele>251.134</ele>
        <time>2013-06-16T13:41:40Z</time>
      </trkpt>
      <trkpt lat="45.71271" lon="4.77003">
        <ele>251.947</ele>
        <time>2013-06-16T13:41:55Z</time>
      </trkpt>
      <trkpt lat="45.71255" lon="4.77003">
        <ele>252.061</ele>
        <time>2013-06-16T13:42:13Z</time>
      </trkpt>
      <trkpt lat="45.71249" lon="4.77005">
        <ele>252.16</ele>
        <time>2013-06-16T13:42:18Z</time>
      </trkpt>
      <trkpt lat="45.71236" lon="4.77008">
        <ele>251.644</ele>
        <time>2013-06-16T13:42:32Z</time>
      </trkpt>
      <trkpt lat="45.7122" lon="4.77003">
        <ele>250.397</ele>
        <time>2013-06-16T13:42:49Z</time>
      </trkpt>
      <trkpt lat="45.71208" lon="4.77004">
        <ele>248.348</ele>
        <time>2013-06-16T13:42:59Z</time>
      </trkpt>
      <trkpt lat="45.71201" lon="4.77005">
        <ele>248.45</ele>
        <time>2013-06-16T13:43:04Z</time>
      </trkpt>
      <trkpt lat="45.71188" lon="4.77005">
        <ele>246.314</ele>
        <time>2013-06-16T13:43:16Z</time>
      </trkpt>
      <trkpt lat="45.71186" lon="4.77006">
        <ele>245.755</ele>
        <time>2013-06-16T13:43:18Z</time>
      </trkpt>
      <trkpt lat="45.71179" lon="4.77004">
        <ele>244.415</ele>
        <time>2013-06-16T13:43:25Z</time>
      </trkpt>
      <trkpt lat="45.71168" lon="4.77004">
        <ele>243.443</ele>
        <time>2013-06-16T13:43:39Z</time>
      </trkpt>
      <trkpt lat="45.71158" lon="4.77">
        <ele>242.91</ele>
        <time>2013-06-16T13:43:48Z</time>
      </trkpt>
      <trkpt lat="45.7115" lon="4.7699">
        <ele>242.017</ele>
        <time>2013-06-16T13:44:07Z</time>
      </trkpt>
      <trkpt lat="45.71149" lon="4.76986">
        <ele>241.86</ele>
        <time>2013-06-16T13:44:30Z</time>
      </trkpt>
      <trkpt lat="45.71145" lon="4.76979">
        <ele>242.307</ele>
        <time>2013-06-16T13:44:42Z</time>
      </trkpt>
      <trkpt lat="45.71136" lon="4.76951">
        <ele>242.978</ele>
        <time>2013-06-16T13:45:02Z</time>
      </trkpt>
      <trkpt lat="45.71126" lon="4.76922">
        <ele>245.04</ele>
        <time>2013-06-16T13:45:23Z</time>
      </trkpt>
      <trkpt lat="45.71123" lon="4.76919">
        <ele>244.946</ele>
        <time>2013-06-16T13:45:40Z</time>
      </trkpt>
      <trkpt lat="45.71121" lon="4.76919">
        <ele>243.58</ele>
        <time>2013-06-16T13:45:54Z</time>
      </trkpt>
      <trkpt lat="45.71121" lon="4.76921">
        <ele>244.283</ele>
        <time>2013-06-16T13:46:45Z</time>
      </trkpt>
      <trkpt lat="45.71121" lon="4.76914">
        <ele>244.34</ele>
        <time>2013-06-16T13:47:10Z</time>
      </trkpt>
      <trkpt lat="45.71117" lon="4.7689">
        <ele>245.268</ele>
        <time>2013-06-16T13:47:24Z</time>
      </trkpt>
      <trkpt lat="45.71112" lon="4.76881">
        <ele>245.922</ele>
        <time>2013-06-16T13:47:30Z</time>
      </trkpt>
      <trkpt lat="45.71107" lon="4.76872">
        <ele>246.414</ele>
        <time>2013-06-16T13:47:36Z</time>
      </trkpt>
      <trkpt lat="45.711" lon="4.76858">
        <ele>246.62</ele>
        <time>2013-06-16T13:47:47Z</time>
      </trkpt>
      <trkpt lat="45.71098" lon="4.76841">
        <ele>247.275</ele>
        <time>2013-06-16T13:47:57Z</time>
      </trkpt>
      <trkpt lat="45.71093" lon="4.76818">
        <ele>247.948</ele>
        <time>2013-06-16T13:48:11Z</time>
      </trkpt>
      <trkpt lat="45.71085" lon="4.7679">
        <ele>249.444</ele>
        <time>2013-06-16T13:48:31Z</time>
      </trkpt>
      <trkpt lat="45.7108" lon="4.76766">
        <ele>250.1</ele>
        <time>2013-06-16T13:48:50Z</time>
      </trkpt>
      <trkpt lat="45.71079" lon="4.7676">
        <ele>250.579</ele>
        <time>2013-06-16T13:48:55Z</time>
      </trkpt>
      <trkpt lat="45.71078" lon="4.76757">
        <ele>250.699</ele>
        <time>2013-06-16T13:48:57Z</time>
      </trkpt>
      <trkpt lat="45.71076" lon="4.76745">
        <ele>250.534</ele>
        <time>2013-06-16T13:49:06Z</time>
      </trkpt>
      <trkpt lat="45.71068" lon="4.76714">
        <ele>252.355</ele>
        <time>2013-06-16T13:49:28Z</time>
      </trkpt>
      <trkpt lat="45.71062" lon="4.76698">
        <ele>253.222</ele>
        <time>2013-06-16T13:49:41Z</time>
      </trkpt>
      <trkpt lat="45.71054" lon="4.7667">
        <ele>254.253</ele>
        <time>2013-06-16T13:50:00Z</time>
      </trkpt>
      <trkpt lat="45.71048" lon="4.76643">
        <ele>255.644</ele>
        <time>2013-06-16T13:50:22Z</time>
      </trkpt>
      <trkpt lat="45.71038" lon="4.76622">
        <ele>256.2</ele>
        <time>2013-06-16T13:50:42Z</time>
      </trkpt>
      <trkpt lat="45.71026" lon="4.76597">
        <ele>257.655</ele>
        <time>2013-06-16T13:51:04Z</time>
      </trkpt>
      <trkpt lat="45.71015" lon="4.76575">
        <ele>258.262</ele>
        <time>2013-06-16T13:51:24Z</time>
      </trkpt>
      <trkpt lat="45.71" lon="4.76548">
        <ele>260.518</ele>
        <time>2013-06-16T13:51:49Z</time>
      </trkpt>
      <trkpt lat="45.70992" lon="4.76527">
        <ele>262.449</ele>
        <time>2013-06-16T13:52:07Z</time>
      </trkpt>
      <trkpt lat="45.70995" lon="4.76516">
        <ele>263.663</ele>
        <time>2013-06-16T13:52:21Z</time>
      </trkpt>
      <trkpt lat="45.71002" lon="4.76503">
        <ele>264.847</ele>
        <time>2013-06-16T13:52:35Z</time>
      </trkpt>
      <trkpt lat="45.71012" lon="4.76487">
        <ele>265.766</ele>
        <time>2013-06-16T13:52:51Z</time>
      </trkpt>
      <trkpt lat="45.71015" lon="4.76476">
        <ele>268.347</ele>
        <time>2013-06-16T13:53:04Z</time>
      </trkpt>
      <trkpt lat="45.71015" lon="4.76465">
        <ele>270.505</ele>
        <time>2013-06-16T13:53:16Z</time>
      </trkpt>
      <trkpt lat="45.71014" lon="4.76462">
        <ele>271.304</ele>
        <time>2013-06-16T13:53:47Z</time>
      </trkpt>
      <trkpt lat="45.71012" lon="4.76466">
        <ele>270.268</ele>
        <time>2013-06-16T13:54:01Z</time>
      </trkpt>
      <trkpt lat="45.71011" lon="4.76463">
        <ele>271.406</ele>
        <time>2013-06-16T13:54:17Z</time>
      </trkpt>
      <trkpt lat="45.71009" lon="4.76457">
        <ele>272.485</ele>
        <time>2013-06-16T13:54:23Z</time>
      </trkpt>
      <trkpt lat="45.71005" lon="4.76447">
        <ele>274.229</ele>
        <time>2013-06-16T13:54:34Z</time>
      </trkpt>
      <trkpt lat="45.71006" lon="4.76444">
        <ele>274.759</ele>
        <time>2013-06-16T13:54:38Z</time>
      </trkpt>
      <trkpt lat="45.71008" lon="4.7643">
        <ele>276.459</ele>
        <time>2013-06-16T13:54:50Z</time>
      </trkpt>
      <trkpt lat="45.71015" lon="4.76417">
        <ele>278.791</ele>
        <time>2013-06-16T13:55:02Z</time>
      </trkpt>
      <trkpt lat="45.71016" lon="4.76411">
        <ele>279.674</ele>
        <time>2013-06-16T13:55:21Z</time>
      </trkpt>
      <trkpt lat="45.71022" lon="4.76394">
        <ele>282.402</ele>
        <time>2013-06-16T13:55:37Z</time>
      </trkpt>
      <trkpt lat="45.71023" lon="4.76388">
        <ele>283.07</ele>
        <time>2013-06-16T13:55:44Z</time>
      </trkpt>
      <trkpt lat="45.71027" lon="4.76378">
        <ele>284.174</ele>
        <time>2013-06-16T13:56:08Z</time>
      </trkpt>
      <trkpt lat="45.71029" lon="4.76367">
        <ele>286.701</ele>
        <time>2013-06-16T13:56:23Z</time>
      </trkpt>
      <trkpt lat="45.7103" lon="4.76354">
        <ele>288.322</ele>
        <time>2013-06-16T13:56:37Z</time>
      </trkpt>
      <trkpt lat="45.71031" lon="4.76343">
        <ele>290.317</ele>
        <time>2013-06-16T13:56:52Z</time>
      </trkpt>
      <trkpt lat="45.71025" lon="4.7635">
        <ele>291.151</ele>
        <time>2013-06-16T13:57:06Z</time>
      </trkpt>
      <trkpt lat="45.71014" lon="4.76359">
        <ele>293.216</ele>
        <time>2013-06-16T13:57:19Z</time>
      </trkpt>
      <trkpt lat="45.71012" lon="4.76361">
        <ele>293.327</ele>
        <time>2013-06-16T13:57:22Z</time>
      </trkpt>
      <trkpt lat="45.71006" lon="4.76366">
        <ele>293.763</ele>
        <time>2013-06-16T13:57:30Z</time>
      </trkpt>
      <trkpt lat="45.71003" lon="4.76369">
        <ele>293.529</ele>
        <time>2013-06-16T13:57:34Z</time>
      </trkpt>
      <trkpt lat="45.70999" lon="4.76371">
        <ele>293.94</ele>
        <time>2013-06-16T13:57:51Z</time>
      </trkpt>
      <trkpt lat="45.70986" lon="4.76373">
        <ele>294.695</ele>
        <time>2013-06-16T13:58:04Z</time>
      </trkpt>
      <trkpt lat="45.70977" lon="4.76374">
        <ele>294.628</ele>
        <time>2013-06-16T13:58:14Z</time>
      </trkpt>
      <trkpt lat="45.70951" lon="4.76374">
        <ele>296.763</ele>
        <time>2013-06-16T13:58:37Z</time>
      </trkpt>
      <trkpt lat="45.70947" lon="4.76374">
        <ele>296.732</ele>
        <time>2013-06-16T13:58:49Z</time>
      </trkpt>
      <trkpt lat="45.70944" lon="4.76372">
        <ele>296.967</ele>
        <time>2013-06-16T13:58:52Z</time>
      </trkpt>
      <trkpt lat="45.70923" lon="4.76373">
        <ele>298.481</ele>
        <time>2013-06-16T13:59:15Z</time>
      </trkpt>
      <trkpt lat="45.70922" lon="4.76373">
        <ele>298.591</ele>
        <time>2013-06-16T13:59:18Z</time>
      </trkpt>
      <trkpt lat="45.70919" lon="4.76372">
        <ele>298.751</ele>
        <time>2013-06-16T13:59:21Z</time>
      </trkpt>
      <trkpt lat="45.70902" lon="4.76366">
        <ele>299.123</ele>
        <time>2013-06-16T13:59:40Z</time>
      </trkpt>
      <trkpt lat="45.70891" lon="4.76355">
        <ele>298.373</ele>
        <time>2013-06-16T13:59:55Z</time>
      </trkpt>
      <trkpt lat="45.70889" lon="4.76348">
        <ele>299.66</ele>
        <time>2013-06-16T14:00:01Z</time>
      </trkpt>
      <trkpt lat="45.7089" lon="4.76337">
        <ele>300</ele>
        <time>2013-06-16T14:00:09Z</time>
      </trkpt>
      <trkpt lat="45.70894" lon="4.7631">
        <ele>303.353</ele>
        <time>2013-06-16T14:00:29Z</time>
      </trkpt>
      <trkpt lat="45.70897" lon="4.76278">
        <ele>302.39</ele>
        <time>2013-06-16T14:00:55Z</time>
      </trkpt>
      <trkpt lat="45.709" lon="4.7626">
        <ele>303.107</ele>
        <time>2013-06-16T14:01:12Z</time>
      </trkpt>
      <trkpt lat="45.70903" lon="4.76251">
        <ele>304.534</ele>
        <time>2013-06-16T14:01:27Z</time>
      </trkpt>
      <trkpt lat="45.70905" lon="4.76224">
        <ele>305.836</ele>
        <time>2013-06-16T14:01:50Z</time>
      </trkpt>
      <trkpt lat="45.70907" lon="4.76216">
        <ele>306.836</ele>
        <time>2013-06-16T14:02:05Z</time>
      </trkpt>
      <trkpt lat="45.7091" lon="4.76206">
        <ele>306.971</ele>
        <time>2013-06-16T14:02:19Z</time>
      </trkpt>
      <trkpt lat="45.70908" lon="4.76204">
        <ele>307.524</ele>
        <time>2013-06-16T14:02:50Z</time>
      </trkpt>
      <trkpt lat="45.70908" lon="4.76186">
        <ele>308.441</ele>
        <time>2013-06-16T14:03:05Z</time>
      </trkpt>
      <trkpt lat="45.70906" lon="4.76181">
        <ele>308.607</ele>
        <time>2013-06-16T14:03:09Z</time>
      </trkpt>
      <trkpt lat="45.70906" lon="4.76156">
        <ele>310.556</ele>
        <time>2013-06-16T14:03:30Z</time>
      </trkpt>
      <trkpt lat="45.70908" lon="4.76133">
        <ele>311.336</ele>
        <time>2013-06-16T14:03:47Z</time>
      </trkpt>
      <trkpt lat="45.7091" lon="4.76112">
        <ele>312.979</ele>
        <time>2013-06-16T14:04:05Z</time>
      </trkpt>
      <trkpt lat="45.7091" lon="4.76105">
        <ele>313.592</ele>
        <time>2013-06-16T14:04:17Z</time>
      </trkpt>
      <trkpt lat="45.70907" lon="4.76103">
        <ele>313.482</ele>
        <time>2013-06-16T14:04:20Z</time>
      </trkpt>
      <trkpt lat="45.70904" lon="4.76103">
        <ele>314.007</ele>
        <time>2013-06-16T14:04:22Z</time>
      </trkpt>
      <trkpt lat="45.709" lon="4.76101">
        <ele>314.586</ele>
        <time>2013-06-16T14:04:27Z</time>
      </trkpt>
      <trkpt lat="45.7088" lon="4.76094">
        <ele>314.568</ele>
        <time>2013-06-16T14:04:45Z</time>
      </trkpt>
      <trkpt lat="45.70861" lon="4.76078">
        <ele>313.601</ele>
        <time>2013-06-16T14:05:08Z</time>
      </trkpt>
      <trkpt lat="45.70858" lon="4.76077">
        <ele>313.54</ele>
        <time>2013-06-16T14:05:24Z</time>
      </trkpt>
      <trkpt lat="45.7085" lon="4.76079">
        <ele>312.748</ele>
        <time>2013-06-16T14:05:42Z</time>
      </trkpt>
      <trkpt lat="45.70838" lon="4.76089">
        <ele>311.454</ele>
        <time>2013-06-16T14:05:55Z</time>
      </trkpt>
      <trkpt lat="45.7082" lon="4.76101">
        <ele>310.486</ele>
        <time>2013-06-16T14:06:18Z</time>
      </trkpt>
      <trkpt lat="45.70802" lon="4.7611">
        <ele>308.995</ele>
        <time>2013-06-16T14:06:40Z</time>
      </trkpt>
      <trkpt lat="45.70785" lon="4.76114">
        <ele>309.255</ele>
        <time>2013-06-16T14:07:26Z</time>
      </trkpt>
      <trkpt lat="45.70781" lon="4.76118">
        <ele>309.436</ele>
        <time>2013-06-16T14:07:31Z</time>
      </trkpt>
      <trkpt lat="45.70756" lon="4.76112">
        <ele>307.797</ele>
        <time>2013-06-16T14:07:53Z</time>
      </trkpt>
      <trkpt lat="45.70729" lon="4.7611">
        <ele>306.717</ele>
        <time>2013-06-16T14:08:16Z</time>
      </trkpt>
      <trkpt lat="45.70713" lon="4.7611">
        <ele>305.046</ele>
        <time>2013-06-16T14:08:31Z</time>
      </trkpt>
      <trkpt lat="45.70688" lon="4.7611">
        <ele>303.263</ele>
        <time>2013-06-16T14:08:54Z</time>
      </trkpt>
      <trkpt lat="45.70669" lon="4.76109">
        <ele>302.837</ele>
        <time>2013-06-16T14:09:10Z</time>
      </trkpt>
      <trkpt lat="45.70654" lon="4.76108">
        <ele>301.873</ele>
        <time>2013-06-16T14:09:23Z</time>
      </trkpt>
      <trkpt lat="45.70634" lon="4.76109">
        <ele>300.813</ele>
        <time>2013-06-16T14:09:42Z</time>
      </trkpt>
      <trkpt lat="45.70628" lon="4.76093">
        <ele>301.015</ele>
        <time>2013-06-16T14:09:54Z</time>
      </trkpt>
      <trkpt lat="45.70629" lon="4.76063">
        <ele>301.629</ele>
        <time>2013-06-16T14:10:15Z</time>
      </trkpt>
      <trkpt lat="45.70629" lon="4.76045">
        <ele>302.081</ele>
        <time>2013-06-16T14:10:32Z</time>
      </trkpt>
      <trkpt lat="45.70631" lon="4.76021">
        <ele>303.282</ele>
        <time>2013-06-16T14:10:50Z</time>
      </trkpt>
      <trkpt lat="45.70634" lon="4.75993">
        <ele>303.794</ele>
        <time>2013-06-16T14:11:13Z</time>
      </trkpt>
      <trkpt lat="45.70636" lon="4.75971">
        <ele>304.006</ele>
        <time>2013-06-16T14:11:29Z</time>
      </trkpt>
      <trkpt lat="45.70631" lon="4.75939">
        <ele>304.983</ele>
        <time>2013-06-16T14:11:52Z</time>
      </trkpt>
      <trkpt lat="45.70629" lon="4.7592">
        <ele>305.185</ele>
        <time>2013-06-16T14:12:07Z</time>
      </trkpt>
      <trkpt lat="45.70625" lon="4.75886">
        <ele>304.951</ele>
        <time>2013-06-16T14:12:30Z</time>
      </trkpt>
      <trkpt lat="45.70621" lon="4.75847">
        <ele>306.513</ele>
        <time>2013-06-16T14:12:57Z</time>
      </trkpt>
      <trkpt lat="45.70617" lon="4.75829">
        <ele>306.384</ele>
        <time>2013-06-16T14:13:12Z</time>
      </trkpt>
      <trkpt lat="45.70615" lon="4.75815">
        <ele>307.966</ele>
        <time>2013-06-16T14:13:24Z</time>
      </trkpt>
      <trkpt lat="45.70619" lon="4.75791">
        <ele>309.054</ele>
        <time>2013-06-16T14:13:40Z</time>
      </trkpt>
      <trkpt lat="45.70619" lon="4.75783">
        <ele>309.895</ele>
        <time>2013-06-16T14:14:08Z</time>
      </trkpt>
      <trkpt lat="45.70619" lon="4.75784">
        <ele>309.369</ele>
        <time>2013-06-16T14:14:36Z</time>
      </trkpt>
      <trkpt lat="45.70614" lon="4.75781">
        <ele>309.442</ele>
        <time>2013-06-16T14:14:46Z</time>
      </trkpt>
      <trkpt lat="45.70608" lon="4.75772">
        <ele>309.21</ele>
        <time>2013-06-16T14:14:53Z</time>
      </trkpt>
      <trkpt lat="45.70605" lon="4.75755">
        <ele>309.014</ele>
        <time>2013-06-16T14:15:06Z</time>
      </trkpt>
      <trkpt lat="45.70603" lon="4.75749">
        <ele>310.162</ele>
        <time>2013-06-16T14:15:11Z</time>
      </trkpt>
      <trkpt lat="45.706" lon="4.75743">
        <ele>310.296</ele>
        <time>2013-06-16T14:15:15Z</time>
      </trkpt>
      <trkpt lat="45.70597" lon="4.75733">
        <ele>310.547</ele>
        <time>2013-06-16T14:15:30Z</time>
      </trkpt>
      <trkpt lat="45.70589" lon="4.75707">
        <ele>309.524</ele>
        <time>2013-06-16T14:15:50Z</time>
      </trkpt>
      <trkpt lat="45.70586" lon="4.75698">
        <ele>309.687</ele>
        <time>2013-06-16T14:15:57Z</time>
      </trkpt>
      <trkpt lat="45.70585" lon="4.75693">
        <ele>308.934</ele>
        <time>2013-06-16T14:16:15Z</time>
      </trkpt>
      <trkpt lat="45.70583" lon="4.75683">
        <ele>308.355</ele>
        <time>2013-06-16T14:16:24Z</time>
      </trkpt>
      <trkpt lat="45.7058" lon="4.75641">
        <ele>307.159</ele>
        <time>2013-06-16T14:16:51Z</time>
      </trkpt>
      <trkpt lat="45.70581" lon="4.75622">
        <ele>306.006</ele>
        <time>2013-06-16T14:17:10Z</time>
      </trkpt>
      <trkpt lat="45.7058" lon="4.75601">
        <ele>303.885</ele>
        <time>2013-06-16T14:17:26Z</time>
      </trkpt>
      <trkpt lat="45.70577" lon="4.75594">
        <ele>302.829</ele>
        <time>2013-06-16T14:17:33Z</time>
      </trkpt>
      <trkpt lat="45.70575" lon="4.7559">
        <ele>302.776</ele>
        <time>2013-06-16T14:17:37Z</time>
      </trkpt>
      <trkpt lat="45.70572" lon="4.75574">
        <ele>301.241</ele>
        <time>2013-06-16T14:17:47Z</time>
      </trkpt>
      <trkpt lat="45.70568" lon="4.75558">
        <ele>299.738</ele>
        <time>2013-06-16T14:17:58Z</time>
      </trkpt>
      <trkpt lat="45.70567" lon="4.75555">
        <ele>299.461</ele>
        <time>2013-06-16T14:18:00Z</time>
      </trkpt>
      <trkpt lat="45.70562" lon="4.75545">
        <ele>298.393</ele>
        <time>2013-06-16T14:18:09Z</time>
      </trkpt>
      <trkpt lat="45.70556" lon="4.75529">
        <ele>296.761</ele>
        <time>2013-06-16T14:18:25Z</time>
      </trkpt>
      <trkpt lat="45.70547" lon="4.75521">
        <ele>295.903</ele>
        <time>2013-06-16T14:18:36Z</time>
      </trkpt>
      <trkpt lat="45.7054" lon="4.75516">
        <ele>294.919</ele>
        <time>2013-06-16T14:18:49Z</time>
      </trkpt>
      <trkpt lat="45.70529" lon="4.75513">
        <ele>293.885</ele>
        <time>2013-06-16T14:19:05Z</time>
      </trkpt>
      <trkpt lat="45.70519" lon="4.75512">
        <ele>293.812</ele>
        <time>2013-06-16T14:19:14Z</time>
      </trkpt>
      <trkpt lat="45.70512" lon="4.75512">
        <ele>292.558</ele>
        <time>2013-06-16T14:19:21Z</time>
      </trkpt>
      <trkpt lat="45.70507" lon="4.75513">
        <ele>292.501</ele>
        <time>2013-06-16T14:19:26Z</time>
      </trkpt>
      <trkpt lat="45.70492" lon="4.75515">
        <ele>291.336</ele>
        <time>2013-06-16T14:19:39Z</time>
      </trkpt>
      <trkpt lat="45.7048" lon="4.75516">
        <ele>290.574</ele>
        <time>2013-06-16T14:19:50Z</time>
      </trkpt>
      <trkpt lat="45.70475" lon="4.75516">
        <ele>289.915</ele>
        <time>2013-06-16T14:19:57Z</time>
      </trkpt>
      <trkpt lat="45.70464" lon="4.75516">
        <ele>288.147</ele>
        <time>2013-06-16T14:20:09Z</time>
      </trkpt>
      <trkpt lat="45.70456" lon="4.75505">
        <ele>285.66</ele>
        <time>2013-06-16T14:20:20Z</time>
      </trkpt>
      <trkpt lat="45.70452" lon="4.755">
        <ele>284.362</ele>
        <time>2013-06-16T14:20:24Z</time>
      </trkpt>
      <trkpt lat="45.70444" lon="4.75485">
        <ele>281.042</ele>
        <time>2013-06-16T14:20:37Z</time>
      </trkpt>
      <trkpt lat="45.70441" lon="4.75466">
        <ele>279.318</ele>
        <time>2013-06-16T14:20:48Z</time>
      </trkpt>
      <trkpt lat="45.70436" lon="4.7545">
        <ele>277.091</ele>
        <time>2013-06-16T14:21:02Z</time>
      </trkpt>
      <trkpt lat="45.70433" lon="4.75441">
        <ele>276.307</ele>
        <time>2013-06-16T14:21:08Z</time>
      </trkpt>
      <trkpt lat="45.70433" lon="4.75435">
        <ele>275.805</ele>
        <time>2013-06-16T14:21:11Z</time>
      </trkpt>
      <trkpt lat="45.70427" lon="4.7542">
        <ele>274.221</ele>
        <time>2013-06-16T14:21:23Z</time>
      </trkpt>
      <trkpt lat="45.70422" lon="4.75409">
        <ele>272.351</ele>
        <time>2013-06-16T14:21:35Z</time>
      </trkpt>
      <trkpt lat="45.70424" lon="4.7539">
        <ele>271.366</ele>
        <time>2013-06-16T14:21:53Z</time>
      </trkpt>
      <trkpt lat="45.70434" lon="4.75371">
        <ele>270.055</ele>
        <time>2013-06-16T14:22:09Z</time>
      </trkpt>
      <trkpt lat="45.70436" lon="4.75372">
        <ele>270.063</ele>
        <time>2013-06-16T14:22:11Z</time>
      </trkpt>
      <trkpt lat="45.70453" lon="4.7536">
        <ele>269.645</ele>
        <time>2013-06-16T14:22:25Z</time>
      </trkpt>
      <trkpt lat="45.70465" lon="4.75349">
        <ele>269.138</ele>
        <time>2013-06-16T14:22:43Z</time>
      </trkpt>
      <trkpt lat="45.70472" lon="4.75348">
        <ele>269.659</ele>
        <time>2013-06-16T14:22:52Z</time>
      </trkpt>
      <trkpt lat="45.70477" lon="4.7534">
        <ele>269.351</ele>
        <time>2013-06-16T14:23:08Z</time>
      </trkpt>
      <trkpt lat="45.70479" lon="4.7534">
        <ele>268.859</ele>
        <time>2013-06-16T14:23:27Z</time>
      </trkpt>
      <trkpt lat="45.70483" lon="4.7534">
        <ele>269.575</ele>
        <time>2013-06-16T14:23:42Z</time>
      </trkpt>
      <trkpt lat="45.70497" lon="4.75343">
        <ele>271.913</ele>
        <time>2013-06-16T14:27:06Z</time>
      </trkpt>
      <trkpt lat="45.70498" lon="4.75341">
        <ele>271.947</ele>
        <time>2013-06-16T14:27:20Z</time>
      </trkpt>
      <trkpt lat="45.70505" lon="4.75326">
        <ele>272.286</ele>
        <time>2013-06-16T14:27:33Z</time>
      </trkpt>
      <trkpt lat="45.70515" lon="4.75325">
        <ele>274.309</ele>
        <time>2013-06-16T14:27:45Z</time>
      </trkpt>
      <trkpt lat="45.70523" lon="4.75322">
        <ele>277.413</ele>
        <time>2013-06-16T14:28:00Z</time>
      </trkpt>
      <trkpt lat="45.70535" lon="4.7532">
        <ele>279.301</ele>
        <time>2013-06-16T14:28:16Z</time>
      </trkpt>
      <trkpt lat="45.70544" lon="4.75323">
        <ele>281.549</ele>
        <time>2013-06-16T14:28:31Z</time>
      </trkpt>
      <trkpt lat="45.70554" lon="4.75318">
        <ele>283.924</ele>
        <time>2013-06-16T14:28:45Z</time>
      </trkpt>
      <trkpt lat="45.70562" lon="4.75321">
        <ele>285.821</ele>
        <time>2013-06-16T14:28:58Z</time>
      </trkpt>
      <trkpt lat="45.7057" lon="4.7532">
        <ele>289.006</ele>
        <time>2013-06-16T14:29:14Z</time>
      </trkpt>
      <trkpt lat="45.70578" lon="4.75315">
        <ele>291.896</ele>
        <time>2013-06-16T14:29:27Z</time>
      </trkpt>
      <trkpt lat="45.70586" lon="4.75311">
        <ele>293.77</ele>
        <time>2013-06-16T14:29:38Z</time>
      </trkpt>
      <trkpt lat="45.7059" lon="4.7531">
        <ele>295.531</ele>
        <time>2013-06-16T14:29:53Z</time>
      </trkpt>
      <trkpt lat="45.70593" lon="4.75304">
        <ele>296.773</ele>
        <time>2013-06-16T14:30:14Z</time>
      </trkpt>
      <trkpt lat="45.70598" lon="4.75286">
        <ele>297.527</ele>
        <time>2013-06-16T14:30:29Z</time>
      </trkpt>
      <trkpt lat="45.70607" lon="4.75276">
        <ele>298.736</ele>
        <time>2013-06-16T14:30:47Z</time>
      </trkpt>
      <trkpt lat="45.70617" lon="4.75269">
        <ele>299.04</ele>
        <time>2013-06-16T14:31:01Z</time>
      </trkpt>
      <trkpt lat="45.70625" lon="4.75262">
        <ele>299.545</ele>
        <time>2013-06-16T14:31:15Z</time>
      </trkpt>
      <trkpt lat="45.70639" lon="4.75258">
        <ele>300.433</ele>
        <time>2013-06-16T14:31:30Z</time>
      </trkpt>
      <trkpt lat="45.70644" lon="4.75258">
        <ele>300.816</ele>
        <time>2013-06-16T14:31:45Z</time>
      </trkpt>
      <trkpt lat="45.70653" lon="4.75266">
        <ele>301.933</ele>
        <time>2013-06-16T14:32:03Z</time>
      </trkpt>
      <trkpt lat="45.70654" lon="4.75276">
        <ele>302.45</ele>
        <time>2013-06-16T14:32:15Z</time>
      </trkpt>
      <trkpt lat="45.70662" lon="4.75277">
        <ele>302.6</ele>
        <time>2013-06-16T14:32:25Z</time>
      </trkpt>
      <trkpt lat="45.70667" lon="4.75279">
        <ele>303.346</ele>
        <time>2013-06-16T14:32:29Z</time>
      </trkpt>
      <trkpt lat="45.70676" lon="4.75284">
        <ele>304.001</ele>
        <time>2013-06-16T14:32:38Z</time>
      </trkpt>
      <trkpt lat="45.70688" lon="4.75293">
        <ele>303.941</ele>
        <time>2013-06-16T14:32:54Z</time>
      </trkpt>
      <trkpt lat="45.70698" lon="4.75301">
        <ele>303.296</ele>
        <time>2013-06-16T14:33:05Z</time>
      </trkpt>
      <trkpt lat="45.70709" lon="4.7531">
        <ele>303.447</ele>
        <time>2013-06-16T14:33:17Z</time>
      </trkpt>
      <trkpt lat="45.70719" lon="4.75315">
        <ele>303.369</ele>
        <time>2013-06-16T14:33:30Z</time>
      </trkpt>
      <trkpt lat="45.70732" lon="4.75319">
        <ele>303.236</ele>
        <time>2013-06-16T14:33:43Z</time>
      </trkpt>
      <trkpt lat="45.70741" lon="4.75321">
        <ele>303.376</ele>
        <time>2013-06-16T14:33:56Z</time>
      </trkpt>
      <trkpt lat="45.70747" lon="4.75322">
        <ele>303.358</ele>
        <time>2013-06-16T14:34:05Z</time>
      </trkpt>
      <trkpt lat="45.70759" lon="4.75327">
        <ele>304.353</ele>
        <time>2013-06-16T14:34:17Z</time>
      </trkpt>
      <trkpt lat="45.70769" lon="4.75327">
        <ele>304.133</ele>
        <time>2013-06-16T14:34:26Z</time>
      </trkpt>
      <trkpt lat="45.70784" lon="4.75331">
        <ele>304.445</ele>
        <time>2013-06-16T14:34:44Z</time>
      </trkpt>
      <trkpt lat="45.70798" lon="4.75337">
        <ele>304.997</ele>
        <time>2013-06-16T14:34:58Z</time>
      </trkpt>
      <trkpt lat="45.70808" lon="4.75341">
        <ele>305.02</ele>
        <time>2013-06-16T14:35:09Z</time>
      </trkpt>
      <trkpt lat="45.70822" lon="4.75349">
        <ele>305.318</ele>
        <time>2013-06-16T14:35:26Z</time>
      </trkpt>
      <trkpt lat="45.70831" lon="4.75354">
        <ele>305.414</ele>
        <time>2013-06-16T14:35:40Z</time>
      </trkpt>
      <trkpt lat="45.70839" lon="4.75356">
        <ele>305.591</ele>
        <time>2013-06-16T14:35:48Z</time>
      </trkpt>
      <trkpt lat="45.70847" lon="4.75357">
        <ele>305.382</ele>
        <time>2013-06-16T14:35:56Z</time>
      </trkpt>
      <trkpt lat="45.7085" lon="4.75357">
        <ele>306.229</ele>
        <time>2013-06-16T14:35:59Z</time>
      </trkpt>
      <trkpt lat="45.70865" lon="4.75364">
        <ele>306.389</ele>
        <time>2013-06-16T14:36:15Z</time>
      </trkpt>
      <trkpt lat="45.70877" lon="4.75368">
        <ele>306.266</ele>
        <time>2013-06-16T14:36:27Z</time>
      </trkpt>
      <trkpt lat="45.70893" lon="4.75376">
        <ele>306.319</ele>
        <time>2013-06-16T14:36:43Z</time>
      </trkpt>
      <trkpt lat="45.70899" lon="4.75379">
        <ele>307.148</ele>
        <time>2013-06-16T14:36:48Z</time>
      </trkpt>
      <trkpt lat="45.70907" lon="4.75379">
        <ele>306.786</ele>
        <time>2013-06-16T14:36:58Z</time>
      </trkpt>
      <trkpt lat="45.70918" lon="4.75383">
        <ele>307.292</ele>
        <time>2013-06-16T14:37:10Z</time>
      </trkpt>
      <trkpt lat="45.70923" lon="4.75384">
        <ele>308.233</ele>
        <time>2013-06-16T14:37:16Z</time>
      </trkpt>
      <trkpt lat="45.70939" lon="4.75391">
        <ele>309.418</ele>
        <time>2013-06-16T14:37:34Z</time>
      </trkpt>
      <trkpt lat="45.70954" lon="4.75392">
        <ele>310.672</ele>
        <time>2013-06-16T14:37:47Z</time>
      </trkpt>
      <trkpt lat="45.70969" lon="4.75396">
        <ele>311.784</ele>
        <time>2013-06-16T14:38:04Z</time>
      </trkpt>
      <trkpt lat="45.70973" lon="4.75397">
        <ele>312.355</ele>
        <time>2013-06-16T14:38:08Z</time>
      </trkpt>
      <trkpt lat="45.70986" lon="4.75395">
        <ele>313.216</ele>
        <time>2013-06-16T14:38:22Z</time>
      </trkpt>
      <trkpt lat="45.70999" lon="4.75401">
        <ele>313.579</ele>
        <time>2013-06-16T14:38:35Z</time>
      </trkpt>
      <trkpt lat="45.71002" lon="4.754">
        <ele>313.626</ele>
        <time>2013-06-16T14:38:37Z</time>
      </trkpt>
      <trkpt lat="45.71013" lon="4.75409">
        <ele>315.04</ele>
        <time>2013-06-16T14:38:50Z</time>
      </trkpt>
      <trkpt lat="45.71029" lon="4.75409">
        <ele>315.027</ele>
        <time>2013-06-16T14:39:04Z</time>
      </trkpt>
      <trkpt lat="45.71044" lon="4.75407">
        <ele>315.394</ele>
        <time>2013-06-16T14:39:18Z</time>
      </trkpt>
      <trkpt lat="45.7106" lon="4.75426">
        <ele>316.045</ele>
        <time>2013-06-16T14:39:36Z</time>
      </trkpt>
      <trkpt lat="45.71065" lon="4.75427">
        <ele>315.804</ele>
        <time>2013-06-16T14:39:40Z</time>
      </trkpt>
      <trkpt lat="45.71074" lon="4.75419">
        <ele>316.295</ele>
        <time>2013-06-16T14:39:50Z</time>
      </trkpt>
      <trkpt lat="45.71089" lon="4.75423">
        <ele>316.797</ele>
        <time>2013-06-16T14:40:03Z</time>
      </trkpt>
      <trkpt lat="45.71104" lon="4.75427">
        <ele>317.99</ele>
        <time>2013-06-16T14:40:16Z</time>
      </trkpt>
      <trkpt lat="45.71117" lon="4.75427">
        <ele>318.413</ele>
        <time>2013-06-16T14:40:31Z</time>
      </trkpt>
      <trkpt lat="45.71133" lon="4.75445">
        <ele>319.367</ele>
        <time>2013-06-16T14:40:50Z</time>
      </trkpt>
      <trkpt lat="45.71146" lon="4.75459">
        <ele>320.141</ele>
        <time>2013-06-16T14:41:08Z</time>
      </trkpt>
      <trkpt lat="45.71164" lon="4.75453">
        <ele>321.193</ele>
        <time>2013-06-16T14:41:24Z</time>
      </trkpt>
      <trkpt lat="45.71171" lon="4.75448">
        <ele>321.216</ele>
        <time>2013-06-16T14:41:33Z</time>
      </trkpt>
      <trkpt lat="45.71196" lon="4.7544">
        <ele>322.039</ele>
        <time>2013-06-16T14:41:55Z</time>
      </trkpt>
      <trkpt lat="45.71202" lon="4.75437">
        <ele>321.96</ele>
        <time>2013-06-16T14:42:00Z</time>
      </trkpt>
      <trkpt lat="45.71216" lon="4.75427">
        <ele>322.026</ele>
        <time>2013-06-16T14:42:15Z</time>
      </trkpt>
      <trkpt lat="45.71228" lon="4.75431">
        <ele>323.116</ele>
        <time>2013-06-16T14:42:27Z</time>
      </trkpt>
      <trkpt lat="45.71235" lon="4.75454">
        <ele>323.534</ele>
        <time>2013-06-16T14:42:44Z</time>
      </trkpt>
      <trkpt lat="45.71234" lon="4.75481">
        <ele>324.605</ele>
        <time>2013-06-16T14:43:01Z</time>
      </trkpt>
      <trkpt lat="45.71233" lon="4.75495">
        <ele>324.406</ele>
        <time>2013-06-16T14:43:13Z</time>
      </trkpt>
      <trkpt lat="45.71236" lon="4.75494">
        <ele>325.243</ele>
        <time>2013-06-16T14:43:20Z</time>
      </trkpt>
      <trkpt lat="45.71237" lon="4.75496">
        <ele>325.358</ele>
        <time>2013-06-16T14:43:22Z</time>
      </trkpt>
      <trkpt lat="45.71237" lon="4.75502">
        <ele>325.242</ele>
        <time>2013-06-16T14:43:29Z</time>
      </trkpt>
      <trkpt lat="45.7124" lon="4.75497">
        <ele>325.159</ele>
        <time>2013-06-16T14:43:34Z</time>
      </trkpt>
      <trkpt lat="45.71243" lon="4.75495">
        <ele>324.849</ele>
        <time>2013-06-16T14:43:41Z</time>
      </trkpt>
      <trkpt lat="45.71237" lon="4.75502">
        <ele>324.727</ele>
        <time>2013-06-16T14:43:47Z</time>
      </trkpt>
      <trkpt lat="45.71238" lon="4.7551">
        <ele>324.916</ele>
        <time>2013-06-16T14:43:52Z</time>
      </trkpt>
      <trkpt lat="45.71239" lon="4.75531">
        <ele>325.102</ele>
        <time>2013-06-16T14:44:06Z</time>
      </trkpt>
      <trkpt lat="45.71247" lon="4.75554">
        <ele>326.047</ele>
        <time>2013-06-16T14:44:22Z</time>
      </trkpt>
      <trkpt lat="45.71255" lon="4.75595">
        <ele>327.27</ele>
        <time>2013-06-16T14:44:49Z</time>
      </trkpt>
      <trkpt lat="45.71261" lon="4.75617">
        <ele>328.419</ele>
        <time>2013-06-16T14:45:06Z</time>
      </trkpt>
      <trkpt lat="45.71259" lon="4.75649">
        <ele>329.084</ele>
        <time>2013-06-16T14:45:26Z</time>
      </trkpt>
      <trkpt lat="45.71263" lon="4.75678">
        <ele>328.83</ele>
        <time>2013-06-16T14:45:44Z</time>
      </trkpt>
      <trkpt lat="45.71266" lon="4.75692">
        <ele>328.821</ele>
        <time>2013-06-16T14:45:55Z</time>
      </trkpt>
      <trkpt lat="45.71268" lon="4.75699">
        <ele>329.001</ele>
        <time>2013-06-16T14:46:01Z</time>
      </trkpt>
      <trkpt lat="45.71271" lon="4.75705">
        <ele>329.06</ele>
        <time>2013-06-16T14:46:05Z</time>
      </trkpt>
      <trkpt lat="45.71269" lon="4.75734">
        <ele>328.799</ele>
        <time>2013-06-16T14:46:21Z</time>
      </trkpt>
      <trkpt lat="45.71276" lon="4.75745">
        <ele>329.951</ele>
        <time>2013-06-16T14:46:37Z</time>
      </trkpt>
      <trkpt lat="45.71279" lon="4.7575">
        <ele>329.783</ele>
        <time>2013-06-16T14:46:48Z</time>
      </trkpt>
      <trkpt lat="45.71296" lon="4.75751">
        <ele>330.484</ele>
        <time>2013-06-16T14:47:02Z</time>
      </trkpt>
      <trkpt lat="45.71308" lon="4.7575">
        <ele>331.299</ele>
        <time>2013-06-16T14:47:13Z</time>
      </trkpt>
      <trkpt lat="45.71328" lon="4.75749">
        <ele>330.677</ele>
        <time>2013-06-16T14:47:30Z</time>
      </trkpt>
      <trkpt lat="45.71353" lon="4.75747">
        <ele>331.635</ele>
        <time>2013-06-16T14:47:52Z</time>
      </trkpt>
      <trkpt lat="45.71366" lon="4.75746">
        <ele>332.016</ele>
        <time>2013-06-16T14:48:04Z</time>
      </trkpt>
      <trkpt lat="45.71387" lon="4.75749">
        <ele>332.511</ele>
        <time>2013-06-16T14:48:24Z</time>
      </trkpt>
      <trkpt lat="45.71399" lon="4.75754">
        <ele>332.46</ele>
        <time>2013-06-16T14:48:35Z</time>
      </trkpt>
      <trkpt lat="45.71406" lon="4.75752">
        <ele>332.377</ele>
        <time>2013-06-16T14:48:44Z</time>
      </trkpt>
      <trkpt lat="45.7142" lon="4.75749">
        <ele>332.485</ele>
        <time>2013-06-16T14:48:57Z</time>
      </trkpt>
      <trkpt lat="45.71434" lon="4.75748">
        <ele>332.783</ele>
        <time>2013-06-16T14:49:10Z</time>
      </trkpt>
      <trkpt lat="45.71451" lon="4.75753">
        <ele>333.302</ele>
        <time>2013-06-16T14:49:28Z</time>
      </trkpt>
      <trkpt lat="45.71476" lon="4.75754">
        <ele>333.513</ele>
        <time>2013-06-16T14:49:50Z</time>
      </trkpt>
      <trkpt lat="45.71498" lon="4.75752">
        <ele>332.713</ele>
        <time>2013-06-16T14:50:09Z</time>
      </trkpt>
      <trkpt lat="45.7151" lon="4.75754">
        <ele>333.185</ele>
        <time>2013-06-16T14:50:21Z</time>
      </trkpt>
      <trkpt lat="45.71519" lon="4.75759">
        <ele>334.347</ele>
        <time>2013-06-16T14:50:37Z</time>
      </trkpt>
      <trkpt lat="45.7153" lon="4.75762">
        <ele>333.597</ele>
        <time>2013-06-16T14:50:55Z</time>
      </trkpt>
      <trkpt lat="45.71552" lon="4.75772">
        <ele>333.84</ele>
        <time>2013-06-16T14:51:17Z</time>
      </trkpt>
      <trkpt lat="45.7157" lon="4.75778">
        <ele>331.808</ele>
        <time>2013-06-16T14:51:36Z</time>
      </trkpt>
      <trkpt lat="45.71595" lon="4.75795">
        <ele>331.947</ele>
        <time>2013-06-16T14:52:01Z</time>
      </trkpt>
      <trkpt lat="45.71617" lon="4.75801">
        <ele>331.352</ele>
        <time>2013-06-16T14:52:21Z</time>
      </trkpt>
      <trkpt lat="45.7163" lon="4.75804">
        <ele>329.859</ele>
        <time>2013-06-16T14:52:42Z</time>
      </trkpt>
      <trkpt lat="45.71643" lon="4.75808">
        <ele>328.851</ele>
        <time>2013-06-16T14:52:58Z</time>
      </trkpt>
      <trkpt lat="45.71666" lon="4.7581">
        <ele>328.322</ele>
        <time>2013-06-16T14:53:18Z</time>
      </trkpt>
      <trkpt lat="45.71686" lon="4.75812">
        <ele>327.578</ele>
        <time>2013-06-16T14:53:37Z</time>
      </trkpt>
      <trkpt lat="45.717" lon="4.75813">
        <ele>326.685</ele>
        <time>2013-06-16T14:53:49Z</time>
      </trkpt>
      <trkpt lat="45.71711" lon="4.75814">
        <ele>326.203</ele>
        <time>2013-06-16T14:54:00Z</time>
      </trkpt>
      <trkpt lat="45.71723" lon="4.7582">
        <ele>325.427</ele>
        <time>2013-06-16T14:54:12Z</time>
      </trkpt>
      <trkpt lat="45.71741" lon="4.75826">
        <ele>323.884</ele>
        <time>2013-06-16T14:54:32Z</time>
      </trkpt>
      <trkpt lat="45.71756" lon="4.7583">
        <ele>323.076</ele>
        <time>2013-06-16T14:54:46Z</time>
      </trkpt>
      <trkpt lat="45.71785" lon="4.75834">
        <ele>321.257</ele>
        <time>2013-06-16T14:55:11Z</time>
      </trkpt>
      <trkpt lat="45.71803" lon="4.75837">
        <ele>319.553</ele>
        <time>2013-06-16T14:55:32Z</time>
      </trkpt>
      <trkpt lat="45.71827" lon="4.75842">
        <ele>318.206</ele>
        <time>2013-06-16T14:55:54Z</time>
      </trkpt>
      <trkpt lat="45.71846" lon="4.75849">
        <ele>317.144</ele>
        <time>2013-06-16T14:56:11Z</time>
      </trkpt>
      <trkpt lat="45.71868" lon="4.75859">
        <ele>316.165</ele>
        <time>2013-06-16T14:56:36Z</time>
      </trkpt>
      <trkpt lat="45.71888" lon="4.75867">
        <ele>315.919</ele>
        <time>2013-06-16T14:56:58Z</time>
      </trkpt>
      <trkpt lat="45.719" lon="4.75873">
        <ele>315.436</ele>
        <time>2013-06-16T14:57:13Z</time>
      </trkpt>
      <trkpt lat="45.71928" lon="4.75889">
        <ele>314.502</ele>
        <time>2013-06-16T14:57:39Z</time>
      </trkpt>
      <trkpt lat="45.71933" lon="4.75891">
        <ele>313.981</ele>
        <time>2013-06-16T14:57:46Z</time>
      </trkpt>
      <trkpt lat="45.71946" lon="4.75899">
        <ele>314.264</ele>
        <time>2013-06-16T14:58:00Z</time>
      </trkpt>
      <trkpt lat="45.71954" lon="4.75903">
        <ele>314.146</ele>
        <time>2013-06-16T14:58:07Z</time>
      </trkpt>
      <trkpt lat="45.71957" lon="4.75906">
        <ele>314.223</ele>
        <time>2013-06-16T14:58:11Z</time>
      </trkpt>
      <trkpt lat="45.7198" lon="4.75918">
        <ele>314.285</ele>
        <time>2013-06-16T14:58:35Z</time>
      </trkpt>
      <trkpt lat="45.71984" lon="4.7592">
        <ele>313.973</ele>
        <time>2013-06-16T14:58:38Z</time>
      </trkpt>
      <trkpt lat="45.71986" lon="4.75926">
        <ele>315.045</ele>
        <time>2013-06-16T14:58:42Z</time>
      </trkpt>
      <trkpt lat="45.71987" lon="4.75929">
        <ele>314.274</ele>
        <time>2013-06-16T14:58:45Z</time>
      </trkpt>
      <trkpt lat="45.72006" lon="4.75937">
        <ele>314.259</ele>
        <time>2013-06-16T14:59:03Z</time>
      </trkpt>
      <trkpt lat="45.7203" lon="4.75949">
        <ele>313.284</ele>
        <time>2013-06-16T14:59:29Z</time>
      </trkpt>
      <trkpt lat="45.72033" lon="4.75953">
        <ele>313.209</ele>
        <time>2013-06-16T14:59:42Z</time>
      </trkpt>
      <trkpt lat="45.72033" lon="4.7596">
        <ele>313.656</ele>
        <time>2013-06-16T14:59:46Z</time>
      </trkpt>
      <trkpt lat="45.72027" lon="4.75985">
        <ele>313.584</ele>
        <time>2013-06-16T15:00:01Z</time>
      </trkpt>
    </trkseg>
  </trk>
</gpx>